ポートルイス の空港の天気 - METARとTAF

サー・シウサガル・ラングラーム国際空港 ( FIMP / MRU ) - モーリシャス ポートルイス
飛行場実況気象(Metar)
観測時間10/16 10:00 MUT (10/16 06:00 UTC)
風向・風速東 7m/s
視程10km以上
天気現象
全天の4割程度の雲 雲底高度 460m
気温26℃
湿度58%
気圧1020hPa
METARFIMP 160600Z 08014KT 9999 SCT015 26/17 Q1020
過去の天気等 Google飛行場航空写真 Wunderground天気予報

過去48時間のMETAR

飛行場予報(TAF)
発表時間: 10/16 09:05 MUT (10/16 05:05 UTC)
予報対象時間: 16日10時 MUT ~ 17日16時 MUT
風向・風速東 6m/s
視程10km以上
全天の4割程度の雲 雲底高度 550m
TAF FIMP 160505Z 1606/1712 09012KT 9999 SCT018